createdAt,value
2018-12-12T00:00:55.150Z,97673.59
2018-12-12T00:04:08.507Z,97675.67
2018-12-12T00:07:23.745Z,97680.73
2018-12-12T00:10:30.807Z,97679.44
2018-12-12T00:13:38.300Z,97679.06
2018-12-12T00:16:51.312Z,97681.55
2018-12-12T00:19:59.971Z,97676.95
2018-12-12T00:23:07.154Z,97689.64
2018-12-12T00:26:15.737Z,97682.83
2018-12-12T00:29:24.496Z,97689.99
2018-12-12T00:32:33.672Z,97685.80
2018-12-12T00:35:43.015Z,97687.88
2018-12-12T00:38:50.380Z,97694.54
2018-12-12T00:41:58.441Z,97693.77
2018-12-12T00:45:07.608Z,97700.11
2018-12-12T00:48:17.649Z,97707.25
2018-12-12T00:51:24.838Z,97707.14
2018-12-12T00:54:33.417Z,97709.68
2018-12-12T00:57:42.661Z,97715.17
2018-12-12T01:00:50.072Z,97714.39
2018-12-12T01:03:58.000Z,97719.34
2018-12-12T01:07:05.637Z,97720.66
2018-12-12T01:10:13.280Z,97726.64
2018-12-12T01:13:21.382Z,97728.20
2018-12-12T01:16:28.393Z,97735.42
2018-12-12T01:19:35.744Z,97733.66
2018-12-12T01:22:44.092Z,97738.73
2018-12-12T01:25:52.820Z,97738.24
2018-12-12T01:29:00.381Z,97747.03
2018-12-12T01:32:09.041Z,97743.67
2018-12-12T01:35:17.499Z,97751.16
2018-12-12T01:38:24.889Z,97745.80
2018-12-12T01:41:32.204Z,97751.75
2018-12-12T01:44:39.250Z,97741.16
2018-12-12T01:47:47.112Z,97744.92
2018-12-12T01:50:55.107Z,97747.06
2018-12-12T01:54:02.864Z,97742.91
2018-12-12T01:57:10.380Z,97747.13
2018-12-12T02:00:18.155Z,97755.99
2018-12-12T02:03:25.424Z,97755.54
2018-12-12T02:06:32.948Z,97750.96
2018-12-12T02:09:40.577Z,97762.39
2018-12-12T02:13:02.966Z,97765.73
2018-12-12T02:16:11.746Z,97761.63
2018-12-12T02:19:19.498Z,97768.39
2018-12-12T02:22:26.808Z,97765.45
2018-12-12T02:25:35.318Z,97772.54
2018-12-12T02:28:43.764Z,97775.49
2018-12-12T02:31:50.893Z,97780.12
2018-12-12T02:34:58.415Z,97783.10
2018-12-12T02:38:06.062Z,97785.20
2018-12-12T02:41:13.899Z,97785.63
2018-12-12T02:44:21.928Z,97785.55
2018-12-12T02:47:29.772Z,97785.61
2018-12-12T02:50:37.293Z,97786.89
2018-12-12T02:53:44.539Z,97784.41
2018-12-12T02:56:52.503Z,97786.52
2018-12-12T03:00:00.510Z,97781.92
2018-12-12T03:03:08.279Z,97788.58
2018-12-12T03:06:16.194Z,97791.93
2018-12-12T03:09:25.603Z,97794.52
2018-12-12T03:12:33.224Z,97794.09
2018-12-12T03:15:41.641Z,97799.13
2018-12-12T03:18:49.550Z,97799.97
2018-12-12T03:21:58.301Z,97807.15
2018-12-12T03:25:06.399Z,97810.05
2018-12-12T03:28:14.002Z,97806.72
2018-12-12T03:31:21.556Z,97807.95
2018-12-12T03:34:29.885Z,97813.02
2018-12-12T03:37:37.904Z,97813.92
2018-12-12T03:40:46.417Z,97815.98
2018-12-12T03:43:54.286Z,97811.75
2018-12-12T03:50:21.668Z,97817.19
2018-12-12T03:53:29.592Z,97821.85
2018-12-12T03:56:37.038Z,97829.42
2018-12-12T03:59:44.478Z,97831.45
2018-12-12T04:02:52.277Z,97832.35
2018-12-12T04:05:59.348Z,97828.53
2018-12-12T04:09:09.942Z,97835.72
2018-12-12T04:12:17.363Z,97833.17
2018-12-12T04:15:27.025Z,97829.41
2018-12-12T04:18:45.429Z,97834.80
2018-12-12T04:21:53.034Z,97835.72
2018-12-12T04:25:10.837Z,97836.92
2018-12-12T04:28:18.389Z,97840.75
2018-12-12T04:31:25.742Z,97831.47
2018-12-12T04:34:32.590Z,97834.39
2018-12-12T04:37:40.539Z,97833.54
2018-12-12T04:40:48.350Z,97842.74
2018-12-12T04:43:54.755Z,97847.43
2018-12-12T04:47:02.702Z,97852.02
2018-12-12T04:50:10.256Z,97853.27
2018-12-12T04:53:17.076Z,97850.80
2018-12-12T04:56:24.722Z,97852.02
2018-12-12T04:59:36.931Z,97848.19
2018-12-12T05:02:55.680Z,97848.64
2018-12-12T05:06:03.759Z,97845.70
2018-12-12T05:09:10.331Z,97845.66
2018-12-12T05:12:17.015Z,97841.81
2018-12-12T05:15:24.005Z,97838.02
2018-12-12T05:18:31.691Z,97848.09
2018-12-12T05:21:40.359Z,97842.25
2018-12-12T05:24:49.622Z,97846.82
2018-12-12T05:27:57.302Z,97856.15
2018-12-12T05:31:05.238Z,97856.50
2018-12-12T05:34:13.142Z,97852.73
2018-12-12T05:37:21.082Z,97856.00
2018-12-12T05:40:29.579Z,97861.53
2018-12-12T05:43:37.170Z,97859.39
2018-12-12T05:46:47.549Z,97861.85
2018-12-12T05:49:57.806Z,97855.56
2018-12-12T05:53:04.825Z,97858.06
2018-12-12T05:56:14.222Z,97859.75
2018-12-12T05:59:21.169Z,97855.16
2018-12-12T06:02:29.189Z,97860.63
2018-12-12T06:05:36.029Z,97857.21
2018-12-12T06:08:43.665Z,97862.30
2018-12-12T06:11:52.482Z,97860.63
2018-12-12T06:14:59.092Z,97867.81
2018-12-12T06:18:07.124Z,97869.09
2018-12-12T06:21:14.670Z,97865.25
2018-12-12T06:24:23.170Z,97865.25
2018-12-12T06:27:31.936Z,97868.20
2018-12-12T06:30:40.420Z,97867.77
2018-12-12T06:33:48.139Z,97867.77
2018-12-12T06:36:54.350Z,97862.73
2018-12-12T06:40:01.308Z,97869.03
2018-12-12T06:43:09.346Z,97867.75
2018-12-12T06:46:17.152Z,97871.53
2018-12-12T06:49:24.708Z,97866.92
2018-12-12T06:52:31.374Z,97872.78
2018-12-12T06:55:38.087Z,97874.42
2018-12-12T06:58:45.039Z,97879.92
2018-12-12T07:01:51.738Z,97884.10
2018-12-12T07:04:59.034Z,97889.94
2018-12-12T07:08:05.066Z,97885.29
2018-12-12T07:11:10.942Z,97893.22
2018-12-12T07:14:16.942Z,97895.03
2018-12-12T07:17:22.614Z,97896.27
2018-12-12T07:20:28.569Z,97891.96
2018-12-12T07:23:35.600Z,97894.92
2018-12-12T07:26:41.524Z,97907.18
2018-12-12T07:29:47.465Z,97914.23
2018-12-12T07:32:53.876Z,97913.91
2018-12-12T07:35:59.865Z,97915.16
2018-12-12T07:39:08.748Z,97911.78
2018-12-12T07:42:14.669Z,97914.27
2018-12-12T07:45:39.795Z,97916.80
2018-12-12T07:48:52.517Z,97922.21
2018-12-12T07:52:17.881Z,97921.81
2018-12-12T07:55:23.818Z,97921.41
2018-12-12T07:58:29.775Z,97923.03
2018-12-12T08:01:36.188Z,97930.69
2018-12-12T08:04:42.235Z,97933.56
2018-12-12T08:07:48.393Z,97936.59
2018-12-12T08:10:54.887Z,97942.00
2018-12-12T08:14:00.567Z,97939.86
2018-12-12T08:17:06.505Z,97945.80
2018-12-12T08:20:12.607Z,97952.06
2018-12-12T08:23:19.164Z,97946.93
2018-12-12T08:26:24.871Z,97951.57
2018-12-12T08:29:30.816Z,97956.78
2018-12-12T08:32:38.274Z,97964.70
2018-12-12T08:35:44.204Z,97961.79
2018-12-12T08:38:50.185Z,97969.02
2018-12-12T08:41:58.263Z,97973.53
2018-12-12T08:45:04.869Z,97971.94
2018-12-12T08:48:11.561Z,97974.75
2018-12-12T08:51:17.478Z,97978.13
2018-12-12T08:54:23.227Z,97985.87
2018-12-12T08:57:29.371Z,97983.42
2018-12-12T09:00:35.790Z,97982.05
2018-12-12T09:03:41.420Z,97982.03
2018-12-12T09:06:47.147Z,97983.80
2018-12-12T09:09:53.592Z,97977.45
2018-12-12T09:12:59.562Z,97983.38
2018-12-12T09:16:05.957Z,97985.19
2018-12-12T09:19:11.754Z,97986.87
2018-12-12T09:22:17.230Z,97990.80
2018-12-12T09:25:23.120Z,97989.03
2018-12-12T09:28:29.545Z,97986.86
2018-12-12T09:31:37.691Z,97988.51
2018-12-12T09:34:45.316Z,97988.89
2018-12-12T09:37:51.302Z,97985.52
2018-12-12T09:40:57.400Z,97983.92
2018-12-12T09:44:03.367Z,97991.45
2018-12-12T09:47:09.391Z,97996.91
2018-12-12T09:50:15.766Z,97992.66
2018-12-12T09:53:23.128Z,97992.25
2018-12-12T09:56:30.701Z,97992.25
2018-12-12T09:59:36.647Z,97990.16
2018-12-12T10:02:42.730Z,98002.26
2018-12-12T10:05:48.494Z,97990.63
2018-12-12T10:08:54.495Z,97999.02
2018-12-12T10:12:00.225Z,97988.55
2018-12-12T10:15:07.402Z,97991.79
2018-12-12T10:18:13.384Z,97993.89
2018-12-12T10:21:19.309Z,97993.12
2018-12-12T10:24:25.798Z,97992.29
2018-12-12T10:27:32.538Z,97983.92
2018-12-12T10:30:38.633Z,97994.95
2018-12-12T10:33:44.665Z,97990.78
2018-12-12T10:42:15.061Z,97998.25
2018-12-12T10:45:20.987Z,97994.89
2018-12-12T10:48:26.960Z,97994.05
2018-12-12T10:51:34.322Z,97997.88
2018-12-12T10:54:40.652Z,97989.92
2018-12-12T10:57:46.348Z,97990.88
2018-12-12T11:00:57.572Z,97992.96
2018-12-12T11:04:04.249Z,97993.48
2018-12-12T11:07:09.981Z,97986.88
2018-12-12T11:10:16.293Z,97988.94
2018-12-12T11:13:22.298Z,97987.55
2018-12-12T11:16:28.753Z,97984.77
2018-12-12T11:19:34.665Z,97984.34
2018-12-12T11:22:40.632Z,97986.06
2018-12-12T11:25:46.679Z,97985.14
2018-12-12T11:28:52.687Z,97986.94
2018-12-12T11:31:58.356Z,97989.48
2018-12-12T11:35:04.826Z,97984.38
2018-12-12T11:38:10.703Z,97990.42
2018-12-12T11:41:16.672Z,97990.48
2018-12-12T11:44:22.895Z,97990.51
2018-12-12T11:47:29.131Z,97990.08
2018-12-12T11:50:35.129Z,97985.89
2018-12-12T11:53:40.796Z,97990.11
2018-12-12T11:56:46.793Z,97988.72
2018-12-12T11:59:52.502Z,97989.27
2018-12-12T12:02:58.195Z,97989.69
2018-12-12T12:06:03.942Z,97999.92
2018-12-12T12:09:10.997Z,97996.16
2018-12-12T12:12:16.736Z,97999.19
2018-12-12T12:15:24.171Z,97995.70
2018-12-12T12:18:31.136Z,97991.87
2018-12-12T12:21:37.045Z,97991.47
2018-12-12T12:24:42.697Z,97992.48
2018-12-12T12:27:48.308Z,97985.79
2018-12-12T12:30:54.279Z,97980.36
2018-12-12T12:34:03.242Z,97974.86
2018-12-12T12:37:08.549Z,97977.83
2018-12-12T12:40:14.924Z,97977.00
2018-12-12T12:43:20.644Z,97982.01
2018-12-12T12:46:26.866Z,97980.34
2018-12-12T12:49:32.815Z,97982.89
2018-12-12T12:52:38.784Z,97984.98
2018-12-12T12:55:44.738Z,97988.77
2018-12-12T12:58:50.388Z,97984.62
2018-12-12T13:01:56.359Z,97986.71
2018-12-12T13:05:03.318Z,97984.52
2018-12-12T13:08:09.024Z,97984.56
2018-12-12T13:11:15.029Z,97984.55
2018-12-12T13:14:21.304Z,97984.49
2018-12-12T13:17:27.339Z,97988.34
2018-12-12T13:20:33.403Z,97984.11
2018-12-12T13:23:39.114Z,97993.88
2018-12-12T13:26:45.575Z,97990.86
2018-12-12T13:29:51.604Z,97995.92
2018-12-12T13:32:57.297Z,98000.56
2018-12-12T13:36:04.602Z,97993.91
2018-12-12T13:39:10.545Z,97999.75
2018-12-12T13:42:16.652Z,97996.44
2018-12-12T13:45:22.935Z,98001.48
2018-12-12T13:48:29.398Z,97994.73
2018-12-12T13:51:35.063Z,97998.52
2018-12-12T13:54:40.993Z,97997.26
2018-12-12T13:57:46.687Z,97998.48
2018-12-12T14:00:53.699Z,98003.05
2018-12-12T14:03:59.604Z,98002.95
2018-12-12T14:07:05.713Z,98003.05
2018-12-12T14:10:12.171Z,98001.80
2018-12-12T14:13:17.895Z,97995.92
2018-12-12T14:16:23.860Z,97993.40
2018-12-12T14:19:31.120Z,97988.33
2018-12-12T14:22:37.089Z,97994.64
2018-12-12T14:25:43.018Z,97997.56
2018-12-12T14:28:52.972Z,97990.84
2018-12-12T14:31:59.089Z,97987.03
2018-12-12T14:35:05.976Z,97986.63
2018-12-12T14:38:12.098Z,97986.67
2018-12-12T14:41:17.824Z,97989.55
2018-12-12T14:44:23.709Z,97992.91
2018-12-12T14:47:30.285Z,97992.92
2018-12-12T14:50:36.227Z,97997.11
2018-12-12T14:53:41.919Z,97998.33
2018-12-12T14:56:47.868Z,97992.00
2018-12-12T14:59:53.821Z,97995.47
2018-12-12T15:02:59.463Z,98000.07
2018-12-12T15:06:05.861Z,98001.66
2018-12-12T15:09:11.796Z,98002.92
2018-12-12T15:12:18.910Z,97984.88
2018-12-12T15:15:25.545Z,97990.27
2018-12-12T15:18:33.623Z,97995.84
2018-12-12T15:21:39.864Z,97993.19
2018-12-12T15:24:45.793Z,97997.86
2018-12-12T15:27:51.901Z,97995.73
2018-12-12T15:30:57.499Z,98002.03
2018-12-12T15:34:03.122Z,97999.53
2018-12-12T15:37:09.055Z,98002.84
2018-12-12T15:40:14.943Z,98003.22
2018-12-12T15:43:20.684Z,98001.09
2018-12-12T15:46:26.273Z,98002.77
2018-12-12T15:49:32.275Z,98005.76
2018-12-12T15:52:38.167Z,97999.06
2018-12-12T15:55:43.771Z,97996.37
2018-12-12T15:58:49.743Z,98005.64
2018-12-12T16:01:55.370Z,98001.48
2018-12-12T16:05:01.311Z,98000.61
2018-12-12T16:08:07.895Z,98005.20
2018-12-12T16:11:14.771Z,98002.30
2018-12-12T16:14:21.291Z,98000.66
2018-12-12T16:17:27.368Z,98005.27
2018-12-12T16:20:34.842Z,98007.42
2018-12-12T16:23:42.464Z,98007.78
2018-12-12T16:26:48.789Z,98004.44
2018-12-12T16:30:02.961Z,98002.34
2018-12-12T16:33:09.260Z,98004.82
2018-12-12T16:36:16.134Z,98017.13
2018-12-12T16:39:24.507Z,98001.44
2018-12-12T16:42:31.893Z,98007.06
2018-12-12T16:45:40.451Z,98002.84
2018-12-12T16:48:46.791Z,98014.52
2018-12-12T16:51:52.944Z,98009.60
2018-12-12T16:54:59.845Z,98014.56
2018-12-12T16:58:05.899Z,98009.52
2018-12-12T17:01:12.399Z,98011.95
2018-12-12T17:04:19.188Z,98019.91
2018-12-12T17:07:25.708Z,98022.55
2018-12-12T17:10:33.715Z,98019.05
2018-12-12T17:13:40.140Z,98022.16
2018-12-12T17:16:46.868Z,98016.29
2018-12-12T17:19:54.081Z,98014.55
2018-12-12T17:23:02.387Z,98019.48
2018-12-12T17:26:09.175Z,98017.17
2018-12-12T17:29:15.258Z,98011.31
2018-12-12T17:32:21.423Z,98019.20
2018-12-12T17:35:27.027Z,98015.73
2018-12-12T17:38:33.237Z,98012.88
2018-12-12T17:41:39.571Z,98018.23
2018-12-12T17:44:45.454Z,98021.06
2018-12-12T17:47:51.207Z,98030.40
2018-12-12T17:50:56.758Z,98027.54
2018-12-12T17:54:02.641Z,98031.74
2018-12-12T17:57:09.287Z,98035.05
2018-12-12T18:00:15.973Z,98040.13
2018-12-12T18:03:23.588Z,98030.96
2018-12-12T18:06:53.621Z,98031.72
2018-12-12T18:09:59.545Z,98030.86
2018-12-12T18:13:05.709Z,98026.59
2018-12-12T18:16:12.970Z,98033.78
2018-12-12T18:19:18.583Z,98038.36
2018-12-12T18:22:24.465Z,98034.06
2018-12-12T18:25:32.060Z,98035.33
2018-12-12T18:28:38.037Z,98042.78
2018-12-12T18:31:43.918Z,98041.30
2018-12-12T18:34:55.259Z,98042.45
2018-12-12T18:38:01.129Z,98042.93
2018-12-12T18:41:07.105Z,98038.56
2018-12-12T18:44:14.689Z,98042.73
2018-12-12T18:47:20.908Z,98041.59
2018-12-12T18:50:26.518Z,98042.30
2018-12-12T18:53:53.940Z,98039.95
2018-12-12T18:57:01.620Z,98039.00
2018-12-12T19:00:08.082Z,98039.39
2018-12-12T19:03:14.948Z,98038.67
2018-12-12T19:06:20.870Z,98035.84
2018-12-12T19:09:26.752Z,98036.72
2018-12-12T19:12:32.639Z,98045.52
2018-12-12T19:15:38.499Z,98049.57
2018-12-12T19:18:44.359Z,98047.48
2018-12-12T19:21:50.007Z,98049.26
2018-12-12T19:24:55.878Z,98045.39
2018-12-12T19:28:01.458Z,98046.28
2018-12-12T19:31:07.060Z,98050.08
2018-12-12T19:34:12.939Z,98047.54
2018-12-12T19:37:18.997Z,98050.13
2018-12-12T19:40:25.056Z,98056.91
2018-12-12T19:43:30.967Z,98057.59
2018-12-12T19:46:36.851Z,98053.95
2018-12-12T19:49:53.869Z,98055.86
2018-12-12T19:52:59.714Z,98057.24
2018-12-12T19:56:05.373Z,98049.98
2018-12-12T19:59:11.147Z,98050.37
2018-12-12T20:02:17.273Z,98054.55
2018-12-12T20:05:23.195Z,98050.89
2018-12-12T20:08:30.737Z,98052.13
2018-12-12T20:11:37.080Z,98051.67
2018-12-12T20:14:42.692Z,98045.52
2018-12-12T20:17:48.391Z,98051.84
2018-12-12T20:20:54.029Z,98050.00
2018-12-12T20:23:59.984Z,98048.47
2018-12-12T20:27:06.570Z,98053.94
2018-12-12T20:30:12.527Z,98053.06
2018-12-12T20:33:18.509Z,98055.28
2018-12-12T20:36:24.623Z,98057.63
2018-12-12T20:39:31.034Z,98058.31
2018-12-12T20:42:37.029Z,98059.34
2018-12-12T20:45:42.925Z,98061.52
2018-12-12T20:48:48.901Z,98058.59
2018-12-12T20:51:54.774Z,98062.76
2018-12-12T20:55:00.687Z,98060.73
2018-12-12T20:58:06.352Z,98054.99
2018-12-12T21:01:11.966Z,98047.38
2018-12-12T21:04:17.885Z,98046.32
2018-12-12T21:07:25.081Z,98046.26
2018-12-12T21:10:31.421Z,98040.68
2018-12-12T21:13:38.104Z,98047.38
2018-12-12T21:16:43.760Z,98046.65
2018-12-12T21:19:49.373Z,98049.84
2018-12-12T21:22:56.981Z,98046.73
2018-12-12T21:26:03.379Z,98042.91
2018-12-12T21:29:09.260Z,98041.11
2018-12-12T21:32:15.214Z,98051.81
2018-12-12T21:35:20.806Z,98055.05
2018-12-12T21:38:26.698Z,98060.07
2018-12-12T21:41:32.275Z,98059.23
2018-12-12T21:44:38.186Z,98052.95
2018-12-12T21:47:43.899Z,98058.16
2018-12-12T21:50:49.839Z,98050.30
2018-12-12T21:53:56.016Z,98056.02
2018-12-12T21:57:01.904Z,98044.41
2018-12-12T22:00:11.760Z,98040.89
2018-12-12T22:03:17.382Z,98042.41
2018-12-12T22:06:23.796Z,98042.57
2018-12-12T22:09:29.656Z,98036.91
2018-12-12T22:12:35.678Z,98038.77
2018-12-12T22:15:41.547Z,98036.17
2018-12-12T22:18:47.572Z,98041.59
2018-12-12T22:21:53.453Z,98040.99
2018-12-12T22:24:59.336Z,98044.68
2018-12-12T22:28:05.201Z,98041.41
2018-12-12T22:31:11.101Z,98040.28
2018-12-12T22:34:16.708Z,98039.34
2018-12-12T22:37:22.280Z,98043.17
2018-12-12T22:40:28.608Z,98041.64
2018-12-12T22:43:34.472Z,98042.64
2018-12-12T22:46:40.612Z,98045.86
2018-12-12T22:49:46.223Z,98038.53
2018-12-12T22:52:52.067Z,98040.45
2018-12-12T22:55:57.667Z,98038.12
2018-12-12T22:59:03.694Z,98044.68
2018-12-12T23:02:09.265Z,98040.02
2018-12-12T23:05:14.872Z,98048.80
2018-12-12T23:08:20.802Z,98052.95
2018-12-12T23:11:26.421Z,98063.13
2018-12-12T23:14:32.049Z,98055.77
2018-12-12T23:17:37.929Z,98057.50
2018-12-12T23:20:43.959Z,98050.72
2018-12-12T23:23:56.558Z,98051.03
2018-12-12T23:27:02.194Z,98054.10
2018-12-12T23:30:09.611Z,98046.55
2018-12-12T23:33:16.291Z,98041.59
2018-12-12T23:36:26.887Z,98045.25
2018-12-12T23:39:29.876Z,98045.91
2018-12-12T23:42:35.733Z,98047.88
2018-12-12T23:45:41.373Z,98040.59
2018-12-12T23:48:46.986Z,98036.37
2018-12-12T23:51:53.336Z,98035.86
2018-12-12T23:54:59.335Z,98026.09
2018-12-12T23:58:05.220Z,98030.91
